createdAt,value
2023-04-27T00:01:46.414Z,101264.69
2023-04-27T00:04:14.435Z,101262.66
2023-04-27T00:06:41.127Z,101260.09
2023-04-27T00:09:07.643Z,101258.03
2023-04-27T00:11:34.325Z,101270.09
2023-04-27T00:14:00.732Z,101262.81
2023-04-27T00:16:27.153Z,101263.69
2023-04-27T00:18:54.006Z,101260.31
2023-04-27T00:21:20.545Z,101260.44
2023-04-27T00:23:46.975Z,101264.50
2023-04-27T00:26:13.408Z,101261.94
2023-04-27T00:28:39.805Z,101263.16
2023-04-27T00:31:06.383Z,101269.19
2023-04-27T00:33:32.765Z,101278.13
2023-04-27T00:36:02.593Z,101274.56
2023-04-27T00:38:29.691Z,101263.81
2023-04-27T00:41:07.056Z,101265.56
2023-04-27T00:43:41.189Z,101270.72
2023-04-27T00:46:08.278Z,101272.09
2023-04-27T00:48:35.512Z,101281.09
2023-04-27T00:51:01.908Z,101280.56
2023-04-27T00:53:28.404Z,101277.75
2023-04-27T00:55:56.369Z,101285.97
2023-04-27T00:58:23.018Z,101283.47
2023-04-27T01:00:49.549Z,101285.19
2023-04-27T01:03:16.051Z,101288.94
2023-04-27T01:05:42.957Z,101286.69
2023-04-27T01:08:10.739Z,101298.44
2023-04-27T01:10:37.602Z,101287.34
2023-04-27T01:13:04.002Z,101290.50
2023-04-27T01:15:30.525Z,101291.50
2023-04-27T01:18:01.246Z,101294.09
2023-04-27T01:20:32.362Z,101297.78
2023-04-27T01:22:59.430Z,101300.00
2023-04-27T01:25:26.293Z,101293.88
2023-04-27T01:27:54.126Z,101307.75
2023-04-27T01:30:22.373Z,101313.34
2023-04-27T01:32:49.928Z,101310.34
2023-04-27T01:35:16.648Z,101309.19
2023-04-27T01:37:43.119Z,101307.88
2023-04-27T01:40:09.824Z,101310.63
2023-04-27T01:42:36.196Z,101307.44
2023-04-27T01:45:02.831Z,101307.22
2023-04-27T01:47:29.233Z,101304.22
2023-04-27T01:49:55.758Z,101314.16
2023-04-27T01:52:22.112Z,101318.00
2023-04-27T01:54:48.543Z,101316.34
2023-04-27T01:57:14.925Z,101310.59
2023-04-27T01:59:41.371Z,101315.94
2023-04-27T02:02:07.880Z,101317.00
2023-04-27T02:04:36.568Z,101321.50
2023-04-27T02:07:03.451Z,101325.75
2023-04-27T02:09:29.830Z,101320.19
2023-04-27T02:11:56.297Z,101329.28
2023-04-27T02:14:22.789Z,101332.03
2023-04-27T02:16:49.186Z,101322.97
2023-04-27T02:19:15.848Z,101332.81
2023-04-27T02:21:42.635Z,101329.28
2023-04-27T02:24:09.637Z,101329.72
2023-04-27T02:26:36.123Z,101326.00
2023-04-27T02:29:03.659Z,101322.75
2023-04-27T02:31:30.961Z,101323.03
2023-04-27T02:33:57.351Z,101328.09
2023-04-27T02:36:23.918Z,101319.84
2023-04-27T02:38:50.341Z,101326.88
2023-04-27T02:41:16.721Z,101320.78
2023-04-27T02:43:43.115Z,101323.00
2023-04-27T02:46:09.531Z,101322.25
2023-04-27T02:48:35.993Z,101323.75
2023-04-27T02:51:05.684Z,101324.41
2023-04-27T02:53:32.075Z,101319.34
2023-04-27T02:55:59.139Z,101311.00
2023-04-27T02:58:25.989Z,101314.06
2023-04-27T03:00:55.985Z,101320.34
2023-04-27T03:03:23.899Z,101317.28
2023-04-27T03:05:50.477Z,101313.81
2023-04-27T03:08:16.859Z,101317.03
2023-04-27T03:10:43.244Z,101313.06
2023-04-27T03:13:09.687Z,101317.28
2023-04-27T03:15:36.110Z,101311.31
2023-04-27T03:18:02.569Z,101303.56
2023-04-27T03:20:29.046Z,101309.78
2023-04-27T03:22:55.439Z,101309.03
2023-04-27T03:25:22.281Z,101312.00
2023-04-27T03:27:48.652Z,101307.97
2023-04-27T03:30:15.252Z,101304.06
2023-04-27T03:32:41.691Z,101304.22
2023-04-27T03:35:09.038Z,101311.81
2023-04-27T03:37:35.428Z,101303.41
2023-04-27T03:40:01.862Z,101307.66
2023-04-27T03:42:29.399Z,101298.03
2023-04-27T03:44:55.902Z,101305.00
2023-04-27T03:47:22.702Z,101313.47
2023-04-27T03:49:49.133Z,101315.50
2023-04-27T03:52:15.614Z,101308.53
2023-04-27T03:54:42.004Z,101323.47
2023-04-27T03:57:09.017Z,101329.91
2023-04-27T03:59:35.464Z,101337.88
2023-04-27T04:02:03.882Z,101334.63
2023-04-27T04:04:31.169Z,101333.50
2023-04-27T04:06:57.747Z,101328.59
2023-04-27T04:09:24.219Z,101328.28
2023-04-27T04:11:52.269Z,101324.34
2023-04-27T04:14:18.898Z,101327.63
2023-04-27T04:16:45.277Z,101341.78
2023-04-27T04:19:11.855Z,101346.78
2023-04-27T04:21:38.364Z,101349.91
2023-04-27T04:24:04.877Z,101357.94
2023-04-27T04:26:31.323Z,101356.28
2023-04-27T04:28:57.770Z,101356.94
2023-04-27T04:31:24.393Z,101356.09
2023-04-27T04:33:51.747Z,101348.75
2023-04-27T04:36:18.518Z,101355.56
2023-04-27T04:38:44.924Z,101346.53
2023-04-27T04:41:11.343Z,101353.81
2023-04-27T04:43:37.721Z,101349.31
2023-04-27T04:46:04.121Z,101352.91
2023-04-27T04:48:30.523Z,101364.25
2023-04-27T04:50:57.201Z,101360.56
2023-04-27T04:53:23.627Z,101363.06
2023-04-27T04:55:49.988Z,101353.00
2023-04-27T04:58:16.342Z,101358.84
2023-04-27T05:00:43.026Z,101360.28
2023-04-27T05:03:09.605Z,101362.97
2023-04-27T05:05:36.130Z,101365.56
2023-04-27T05:08:02.677Z,101355.91
2023-04-27T05:10:29.262Z,101362.97
2023-04-27T05:12:55.976Z,101365.72
2023-04-27T05:15:22.389Z,101366.38
2023-04-27T05:17:48.817Z,101363.72
2023-04-27T05:20:16.122Z,101357.81
2023-04-27T05:22:42.580Z,101362.09
2023-04-27T05:25:09.940Z,101365.50
2023-04-27T05:27:36.433Z,101367.25
2023-04-27T05:30:03.273Z,101372.28
2023-04-27T05:32:29.762Z,101368.50
2023-04-27T05:34:56.254Z,101372.69
2023-04-27T05:37:22.767Z,101373.25
2023-04-27T05:39:49.160Z,101380.88
2023-04-27T05:42:15.521Z,101381.13
2023-04-27T05:44:41.987Z,101377.88
2023-04-27T05:47:08.379Z,101388.41
2023-04-27T05:49:34.757Z,101391.69
2023-04-27T05:52:01.671Z,101391.25
2023-04-27T05:54:28.104Z,101398.44
2023-04-27T05:56:54.524Z,101402.66
2023-04-27T05:59:21.760Z,101405.88
2023-04-27T06:01:48.179Z,101405.19
2023-04-27T06:04:14.870Z,101399.13
2023-04-27T06:06:41.654Z,101400.72
2023-04-27T06:09:08.242Z,101406.47
2023-04-27T06:11:34.706Z,101404.41
2023-04-27T06:14:01.078Z,101401.94
2023-04-27T06:16:27.527Z,101401.50
2023-04-27T06:18:53.961Z,101397.72
2023-04-27T06:21:20.339Z,101401.91
2023-04-27T06:23:46.699Z,101396.22
2023-04-27T06:26:13.077Z,101403.69
2023-04-27T06:28:39.436Z,101407.75
2023-04-27T06:31:06.288Z,101407.63
2023-04-27T06:33:33.370Z,101408.75
2023-04-27T06:36:01.689Z,101401.34
2023-04-27T06:38:28.370Z,101406.78
2023-04-27T06:40:54.989Z,101409.19
2023-04-27T06:43:21.634Z,101405.50
2023-04-27T06:45:48.258Z,101407.69
2023-04-27T06:48:14.820Z,101401.59
2023-04-27T06:50:41.248Z,101401.63
2023-04-27T06:53:08.196Z,101402.78
2023-04-27T06:55:34.807Z,101400.25
2023-04-27T06:58:03.190Z,101394.13
2023-04-27T07:00:29.575Z,101394.38
2023-04-27T07:02:56.212Z,101390.94
2023-04-27T07:05:22.825Z,101395.94
2023-04-27T07:07:49.206Z,101386.56
2023-04-27T07:10:15.778Z,101390.16
2023-04-27T07:12:42.286Z,101380.75
2023-04-27T07:15:09.141Z,101379.22
2023-04-27T07:17:35.698Z,101376.44
2023-04-27T07:20:03.820Z,101377.34
2023-04-27T07:22:30.304Z,101372.41
2023-04-27T07:24:56.704Z,101369.56
2023-04-27T07:27:23.244Z,101369.16
2023-04-27T07:29:49.624Z,101372.22
2023-04-27T07:32:16.240Z,101367.41
2023-04-27T07:34:52.690Z,101369.06
2023-04-27T07:37:20.360Z,101363.47
2023-04-27T07:39:47.284Z,101367.19
2023-04-27T07:42:13.696Z,101366.34
2023-04-27T07:44:40.826Z,101370.06
2023-04-27T07:47:07.303Z,101376.47
2023-04-27T07:49:34.938Z,101373.84
2023-04-27T07:52:01.770Z,101362.75
2023-04-27T07:54:28.186Z,101366.78
2023-04-27T07:56:54.798Z,101362.88
2023-04-27T07:59:21.317Z,101371.81
2023-04-27T08:01:47.918Z,101367.28
2023-04-27T08:04:16.144Z,101372.34
2023-04-27T08:06:43.437Z,101376.69
2023-04-27T08:09:10.079Z,101369.63
2023-04-27T08:11:36.581Z,101370.47
2023-04-27T08:14:02.977Z,101365.81
2023-04-27T08:16:29.427Z,101364.19
2023-04-27T08:18:56.256Z,101365.53
2023-04-27T08:21:23.299Z,101365.41
2023-04-27T08:23:49.810Z,101364.78
2023-04-27T08:26:16.488Z,101362.13
2023-04-27T08:28:42.860Z,101366.75
2023-04-27T08:31:09.281Z,101358.13
2023-04-27T08:33:35.710Z,101360.56
2023-04-27T08:36:02.259Z,101363.34
2023-04-27T08:38:28.647Z,101355.56
2023-04-27T08:40:55.198Z,101351.97
2023-04-27T08:43:21.640Z,101351.75
2023-04-27T08:45:50.107Z,101352.19
2023-04-27T08:48:16.555Z,101345.56
2023-04-27T08:50:44.796Z,101342.16
2023-04-27T08:53:22.012Z,101335.56
2023-04-27T08:55:51.281Z,101340.34
2023-04-27T08:58:17.734Z,101339.06
2023-04-27T09:00:45.781Z,101343.63
2023-04-27T09:03:22.185Z,101344.38
2023-04-27T09:06:00.692Z,101341.63
2023-04-27T09:08:30.040Z,101337.69
2023-04-27T09:10:56.450Z,101340.94
2023-04-27T09:13:22.862Z,101344.63
2023-04-27T09:15:51.710Z,101335.44
2023-04-27T09:18:23.110Z,101341.69
2023-04-27T09:20:51.360Z,101342.63
2023-04-27T09:23:29.744Z,101334.38
2023-04-27T09:25:57.288Z,101320.22
2023-04-27T09:28:27.432Z,101323.38
2023-04-27T09:30:58.704Z,101315.34
2023-04-27T09:33:25.890Z,101317.53
2023-04-27T09:35:52.810Z,101309.84
2023-04-27T09:38:20.789Z,101312.72
2023-04-27T09:40:47.869Z,101312.44
2023-04-27T09:43:14.731Z,101304.34
2023-04-27T09:45:41.554Z,101306.63
2023-04-27T09:48:08.731Z,101300.13
2023-04-27T09:50:39.763Z,101298.56
2023-04-27T09:53:08.328Z,101292.72
2023-04-27T09:55:39.488Z,101290.75
2023-04-27T09:58:43.907Z,101293.03
2023-04-27T10:01:19.324Z,101290.47
2023-04-27T10:04:13.330Z,101286.84
2023-04-27T10:06:52.590Z,101282.78
2023-04-27T10:09:25.505Z,101282.56
2023-04-27T10:11:53.882Z,101281.38
2023-04-27T10:14:22.831Z,101279.47
2023-04-27T10:16:53.142Z,101279.25
2023-04-27T10:19:21.147Z,101281.63
2023-04-27T10:21:52.613Z,101273.22
2023-04-27T10:24:19.041Z,101275.94
2023-04-27T10:26:48.525Z,101273.78
2023-04-27T10:29:16.457Z,101261.44
2023-04-27T10:31:48.448Z,101264.19
2023-04-27T10:34:21.172Z,101253.88
2023-04-27T10:36:47.779Z,101245.00
2023-04-27T10:39:18.611Z,101253.09
2023-04-27T10:41:56.049Z,101243.16
2023-04-27T10:44:28.597Z,101235.09
2023-04-27T10:46:57.061Z,101241.00
2023-04-27T10:49:23.993Z,101237.81
2023-04-27T10:51:51.063Z,101236.09
2023-04-27T10:54:17.563Z,101233.09
2023-04-27T10:56:44.348Z,101228.66
2023-04-27T10:59:11.048Z,101231.97
2023-04-27T11:01:37.871Z,101230.31
2023-04-27T11:04:05.296Z,101227.75
2023-04-27T11:06:34.855Z,101233.25
2023-04-27T11:09:01.529Z,101216.28
2023-04-27T11:11:28.030Z,101215.53
2023-04-27T11:13:55.704Z,101202.25
2023-04-27T11:16:22.949Z,101216.69
2023-04-27T11:18:49.357Z,101212.28
2023-04-27T11:21:18.051Z,101207.81
2023-04-27T11:23:44.439Z,101208.00
2023-04-27T11:26:11.824Z,101207.06
2023-04-27T11:28:38.539Z,101207.16
2023-04-27T11:31:07.244Z,101203.94
2023-04-27T11:33:35.673Z,101210.59
2023-04-27T11:36:02.225Z,101211.28
2023-04-27T11:38:33.781Z,101219.75
2023-04-27T11:41:05.670Z,101216.72
2023-04-27T11:43:32.643Z,101217.56
2023-04-27T11:46:03.341Z,101211.16
2023-04-27T11:48:29.758Z,101212.66
2023-04-27T11:50:59.196Z,101215.13
2023-04-27T11:53:30.922Z,101210.78
2023-04-27T11:56:00.943Z,101201.94
2023-04-27T11:58:29.229Z,101192.97
2023-04-27T12:00:58.836Z,101194.38
2023-04-27T12:03:26.270Z,101196.06
2023-04-27T12:05:53.289Z,101197.84
2023-04-27T12:08:20.383Z,101190.13
2023-04-27T12:10:47.165Z,101182.59
2023-04-27T12:13:14.277Z,101180.34
2023-04-27T12:15:41.105Z,101183.53
2023-04-27T12:18:07.540Z,101193.63
2023-04-27T12:20:34.727Z,101187.91
2023-04-27T12:23:01.223Z,101172.41
2023-04-27T12:25:27.741Z,101172.59
2023-04-27T12:27:54.182Z,101165.66
2023-04-27T12:30:22.549Z,101168.56
2023-04-27T12:32:48.940Z,101170.53
2023-04-27T12:35:15.445Z,101166.22
2023-04-27T12:37:42.316Z,101171.47
2023-04-27T12:40:09.376Z,101160.81
2023-04-27T12:42:35.930Z,101156.56
2023-04-27T12:45:02.322Z,101163.88
2023-04-27T12:47:49.821Z,101162.00
2023-04-27T12:50:15.747Z,101151.56
2023-04-27T12:52:42.149Z,101166.88
2023-04-27T12:55:18.034Z,101152.91
2023-04-27T12:57:51.460Z,101153.19
2023-04-27T13:00:18.102Z,101146.94
2023-04-27T13:02:46.103Z,101148.78
2023-04-27T13:05:12.743Z,101147.69
2023-04-27T13:07:39.134Z,101133.63
2023-04-27T13:10:06.447Z,101131.66
2023-04-27T13:12:32.853Z,101125.47
2023-04-27T13:14:59.228Z,101117.50
2023-04-27T13:17:25.908Z,101121.50
2023-04-27T13:19:52.773Z,101126.94
2023-04-27T13:22:20.821Z,101121.69
2023-04-27T13:24:47.383Z,101102.56
2023-04-27T13:27:13.769Z,101101.22
2023-04-27T13:29:40.480Z,101101.03
2023-04-27T13:32:06.852Z,101110.94
2023-04-27T13:34:33.290Z,101109.47
2023-04-27T13:36:59.756Z,101104.00
2023-04-27T13:39:26.309Z,101102.59
2023-04-27T13:41:53.882Z,101108.78
2023-04-27T13:44:20.302Z,101106.00
2023-04-27T13:46:46.709Z,101092.25
2023-04-27T13:49:13.410Z,101087.41
2023-04-27T13:51:40.511Z,101082.75
2023-04-27T13:54:06.926Z,101087.97
2023-04-27T13:56:33.318Z,101083.25
2023-04-27T13:59:00.216Z,101076.25
2023-04-27T14:01:27.100Z,101076.16
2023-04-27T14:03:53.742Z,101080.00
2023-04-27T14:06:20.512Z,101068.81
2023-04-27T14:08:47.041Z,101056.38
2023-04-27T14:11:13.442Z,101055.56
2023-04-27T14:13:39.823Z,101061.19
2023-04-27T14:16:07.111Z,101062.91
2023-04-27T14:18:33.646Z,101082.59
2023-04-27T14:21:00.508Z,101077.13
2023-04-27T14:23:26.930Z,101069.94
2023-04-27T14:25:53.291Z,101059.22
2023-04-27T14:28:19.687Z,101075.56
2023-04-27T14:30:46.149Z,101074.50
2023-04-27T14:33:12.587Z,101060.41
2023-04-27T14:35:38.996Z,101070.50
2023-04-27T14:38:05.474Z,101069.06
2023-04-27T14:40:31.945Z,101067.50
2023-04-27T14:42:58.868Z,101055.78
2023-04-27T14:45:29.045Z,101055.22
2023-04-27T14:48:00.787Z,101050.19
2023-04-27T14:50:28.014Z,101042.13
2023-04-27T14:52:58.337Z,101037.81
2023-04-27T14:55:24.757Z,101036.56
2023-04-27T14:57:51.400Z,101039.56
2023-04-27T15:00:18.029Z,101047.06
2023-04-27T15:02:44.552Z,101044.66
2023-04-27T15:05:11.014Z,101042.31
2023-04-27T15:07:37.438Z,101040.19
2023-04-27T15:10:04.088Z,101046.19
2023-04-27T15:12:30.665Z,101047.31
2023-04-27T15:14:57.105Z,101043.56
2023-04-27T15:17:24.005Z,101045.06
2023-04-27T15:19:51.655Z,101037.31
2023-04-27T15:22:18.033Z,101043.66
2023-04-27T15:24:44.397Z,101032.88
2023-04-27T15:27:10.999Z,101036.09
2023-04-27T15:29:37.403Z,101027.00
2023-04-27T15:32:04.050Z,101031.38
2023-04-27T15:34:30.978Z,101032.03
2023-04-27T15:36:57.694Z,101029.78
2023-04-27T15:39:24.089Z,101043.94
2023-04-27T15:41:50.469Z,101041.03
2023-04-27T15:44:16.913Z,101036.97
2023-04-27T15:46:43.334Z,101035.31
2023-04-27T15:49:09.800Z,101044.91
2023-04-27T15:51:36.332Z,101027.44
2023-04-27T15:54:02.921Z,101029.63
2023-04-27T15:56:30.850Z,101026.22
2023-04-27T15:58:57.717Z,101017.56
2023-04-27T16:01:24.143Z,101033.16
2023-04-27T16:03:50.739Z,101032.38
2023-04-27T16:06:17.255Z,101032.00
2023-04-27T16:08:43.820Z,101033.34
2023-04-27T16:11:10.252Z,101034.75
2023-04-27T16:13:36.633Z,101034.78
2023-04-27T16:16:04.247Z,101017.94
2023-04-27T16:18:30.790Z,101016.88
2023-04-27T16:20:58.066Z,101013.22
2023-04-27T16:23:24.545Z,101015.56
2023-04-27T16:25:50.947Z,101017.09
2023-04-27T16:28:17.960Z,101014.59
2023-04-27T16:30:44.407Z,101013.88
2023-04-27T16:33:11.008Z,101006.78
2023-04-27T16:35:37.497Z,101008.50
2023-04-27T16:38:05.817Z,101016.41
2023-04-27T16:40:32.897Z,101000.78
2023-04-27T16:42:59.265Z,101010.59
2023-04-27T16:45:25.681Z,101006.00
2023-04-27T16:47:52.065Z,101004.19
2023-04-27T16:50:18.480Z,101010.75
2023-04-27T16:52:45.482Z,100996.56
2023-04-27T16:55:12.014Z,100996.88
2023-04-27T16:57:38.394Z,100998.25
2023-04-27T17:00:09.701Z,100993.75
2023-04-27T17:02:36.563Z,100997.78
2023-04-27T17:05:03.181Z,100998.09
2023-04-27T17:07:32.632Z,100995.91
2023-04-27T17:09:59.619Z,100995.19
2023-04-27T17:12:26.032Z,101006.00
2023-04-27T17:14:52.456Z,101001.22
2023-04-27T17:17:18.852Z,100996.72
2023-04-27T17:19:45.253Z,100996.31
2023-04-27T17:22:13.181Z,100990.72
2023-04-27T17:24:39.896Z,100988.28
2023-04-27T17:27:06.300Z,100993.44
2023-04-27T17:29:32.697Z,100981.53
2023-04-27T17:31:59.103Z,100992.00
2023-04-27T17:34:25.498Z,100989.78
2023-04-27T17:36:51.889Z,100980.56
2023-04-27T17:39:18.372Z,100981.53
2023-04-27T17:41:45.368Z,100976.13
2023-04-27T17:44:12.598Z,100973.63
2023-04-27T17:46:39.170Z,100979.25
2023-04-27T17:49:05.659Z,100966.06
2023-04-27T17:51:33.152Z,100963.56
2023-04-27T17:53:59.621Z,100954.81
2023-04-27T17:56:25.998Z,100952.38
2023-04-27T17:58:52.403Z,100952.81
2023-04-27T18:01:18.872Z,100954.19
2023-04-27T18:03:45.435Z,100946.69
2023-04-27T18:06:12.147Z,100945.38
2023-04-27T18:08:38.573Z,100934.19
2023-04-27T18:11:06.536Z,100947.34
2023-04-27T18:13:32.909Z,100941.84
2023-04-27T18:15:59.493Z,100934.53
2023-04-27T18:18:26.770Z,100943.00
2023-04-27T18:20:53.179Z,100945.53
2023-04-27T18:23:20.157Z,100936.91
2023-04-27T18:25:46.562Z,100937.34
2023-04-27T18:28:12.950Z,100942.84
2023-04-27T18:30:39.366Z,100933.13
2023-04-27T18:33:06.103Z,100940.91
2023-04-27T18:35:32.501Z,100937.44
2023-04-27T18:37:58.869Z,100940.31
2023-04-27T18:40:25.997Z,100938.50
2023-04-27T18:42:53.109Z,100942.97
2023-04-27T18:45:19.800Z,100945.22
2023-04-27T18:47:46.241Z,100942.66
2023-04-27T18:50:13.218Z,100941.56
2023-04-27T18:52:39.615Z,100942.84
2023-04-27T18:55:06.854Z,100947.72
2023-04-27T18:57:33.644Z,100948.81
2023-04-27T19:00:00.245Z,100952.03
2023-04-27T19:02:26.755Z,100952.53
2023-04-27T19:05:10.411Z,100943.56
2023-04-27T19:07:39.349Z,100938.91
2023-04-27T19:10:06.637Z,100946.91
2023-04-27T19:12:33.119Z,100935.41
2023-04-27T19:14:59.550Z,100930.66
2023-04-27T19:17:26.109Z,100929.91
2023-04-27T19:19:52.639Z,100927.97
2023-04-27T19:22:19.136Z,100932.91
2023-04-27T19:24:45.661Z,100932.72
2023-04-27T19:27:12.678Z,100930.56
2023-04-27T19:29:52.957Z,100932.81
2023-04-27T19:32:20.225Z,100938.25
2023-04-27T19:34:47.356Z,100935.75
2023-04-27T19:37:14.103Z,100929.25
2023-04-27T19:39:40.642Z,100933.69
2023-04-27T19:42:07.027Z,100928.47
2023-04-27T19:44:33.418Z,100931.06
2023-04-27T19:46:59.829Z,100927.28
2023-04-27T19:49:26.194Z,100920.28
2023-04-27T19:51:52.662Z,100921.47
2023-04-27T19:54:19.072Z,100926.72
2023-04-27T19:56:45.445Z,100918.31
2023-04-27T19:59:12.153Z,100930.94
2023-04-27T20:01:38.681Z,100927.78
2023-04-27T20:04:05.271Z,100934.91
2023-04-27T20:06:33.177Z,100926.31
2023-04-27T20:08:59.689Z,100922.03
2023-04-27T20:11:26.101Z,100925.97
2023-04-27T20:13:52.476Z,100927.34
2023-04-27T20:16:19.857Z,100908.97
2023-04-27T20:18:46.502Z,100916.19
2023-04-27T20:21:13.054Z,100906.94
2023-04-27T20:23:39.479Z,100901.53
2023-04-27T20:26:05.868Z,100895.00
2023-04-27T20:28:32.436Z,100902.97
2023-04-27T20:30:58.931Z,100896.13
2023-04-27T20:33:25.315Z,100886.19
2023-04-27T20:35:55.553Z,100893.06
2023-04-27T20:38:23.468Z,100886.66
2023-04-27T20:40:52.557Z,100881.56
2023-04-27T20:43:19.409Z,100890.38
2023-04-27T20:45:45.890Z,100888.69
2023-04-27T20:48:13.272Z,100890.91
2023-04-27T20:50:39.754Z,100884.94
2023-04-27T20:53:06.202Z,100881.28
2023-04-27T20:55:33.397Z,100880.59
2023-04-27T20:57:59.761Z,100880.25
2023-04-27T21:00:26.277Z,100870.22
2023-04-27T21:02:52.809Z,100870.22
2023-04-27T21:05:19.367Z,100867.50
2023-04-27T21:07:45.906Z,100863.44
2023-04-27T21:10:12.750Z,100878.38
2023-04-27T21:12:39.199Z,100874.84
2023-04-27T21:15:06.202Z,100866.56
2023-04-27T21:17:32.619Z,100859.84
2023-04-27T21:19:59.067Z,100859.16
2023-04-27T21:22:25.527Z,100850.28
2023-04-27T21:24:52.551Z,100855.78
2023-04-27T21:27:18.954Z,100849.25
2023-04-27T21:29:45.317Z,100834.50
2023-04-27T21:32:11.717Z,100832.84
2023-04-27T21:34:38.109Z,100829.91
2023-04-27T21:37:04.507Z,100827.66
2023-04-27T21:39:30.944Z,100821.34
2023-04-27T21:41:57.324Z,100817.50
2023-04-27T21:44:23.724Z,100819.97
2023-04-27T21:46:50.194Z,100814.25
2023-04-27T21:49:16.684Z,100807.59
2023-04-27T21:51:43.106Z,100801.84
2023-04-27T21:54:09.506Z,100791.38
2023-04-27T21:56:37.526Z,100793.63
2023-04-27T21:59:03.917Z,100789.81
2023-04-27T22:01:30.797Z,100785.97
2023-04-27T22:04:35.883Z,100781.03
2023-04-27T22:07:02.551Z,100780.78
2023-04-27T22:09:28.903Z,100775.72
2023-04-27T22:11:55.312Z,100773.47
2023-04-27T22:14:21.691Z,100768.63
2023-04-27T22:16:48.935Z,100763.69
2023-04-27T22:19:15.344Z,100762.09
2023-04-27T22:21:41.706Z,100759.66
2023-04-27T22:24:08.866Z,100756.50
2023-04-27T22:26:35.413Z,100752.66
2023-04-27T22:29:01.766Z,100748.41
2023-04-27T22:31:28.244Z,100740.16
2023-04-27T22:33:54.653Z,100734.88
2023-04-27T22:36:21.013Z,100738.25
2023-04-27T22:38:47.377Z,100732.84
2023-04-27T22:41:13.907Z,100738.50
2023-04-27T22:43:40.315Z,100729.03
2023-04-27T22:46:06.677Z,100734.06
2023-04-27T22:48:33.482Z,100721.81
2023-04-27T22:50:59.857Z,100720.69
2023-04-27T22:53:26.700Z,100724.28
2023-04-27T22:55:53.078Z,100721.16
2023-04-27T22:58:19.458Z,100721.56
2023-04-27T23:00:46.060Z,100717.22
2023-04-27T23:03:12.714Z,100725.19
2023-04-27T23:05:39.304Z,100714.97
2023-04-27T23:08:06.630Z,100720.69
2023-04-27T23:10:34.704Z,100719.50
2023-04-27T23:13:01.959Z,100715.72
2023-04-27T23:15:28.403Z,100721.00
2023-04-27T23:17:54.776Z,100716.41
2023-04-27T23:20:28.070Z,100711.25
2023-04-27T23:22:55.592Z,100702.91
2023-04-27T23:25:22.140Z,100710.75
2023-04-27T23:27:51.213Z,100698.59
2023-04-27T23:30:18.437Z,100695.69
2023-04-27T23:32:44.855Z,100686.91
2023-04-27T23:35:11.443Z,100679.28
2023-04-27T23:37:37.954Z,100680.13
2023-04-27T23:40:05.029Z,100672.50
2023-04-27T23:42:31.589Z,100674.06
2023-04-27T23:44:58.301Z,100673.50
2023-04-27T23:47:24.762Z,100672.41
2023-04-27T23:49:51.158Z,100675.88
2023-04-27T23:52:17.564Z,100669.56
2023-04-27T23:54:43.925Z,100663.03
2023-04-27T23:57:10.379Z,100667.97
2023-04-27T23:59:37.170Z,100660.13
